createdAt,value
2023-09-29T00:00:59.846Z,3.30
2023-09-29T00:06:01.757Z,3.10
2023-09-29T00:11:03.594Z,3.80
2023-09-29T00:16:05.561Z,3.00
2023-09-29T00:21:07.379Z,2.50
2023-09-29T00:26:09.316Z,2.60
2023-09-29T00:31:11.209Z,3.40
2023-09-29T00:36:12.973Z,3.30
2023-09-29T00:41:14.707Z,2.80
2023-09-29T00:46:16.642Z,3.00
2023-09-29T00:51:18.538Z,3.80
2023-09-29T00:56:20.283Z,3.10
2023-09-29T01:01:23.545Z,2.80
2023-09-29T01:06:25.270Z,2.90
2023-09-29T01:11:26.974Z,3.20
2023-09-29T01:16:28.728Z,2.80
2023-09-29T01:21:31.179Z,3.10
2023-09-29T01:26:33.014Z,2.80
2023-09-29T01:31:34.779Z,2.80
2023-09-29T01:36:36.693Z,2.80
2023-09-29T01:41:38.485Z,2.50
2023-09-29T01:46:40.410Z,2.70
2023-09-29T01:51:42.488Z,2.40
2023-09-29T01:56:44.296Z,2.80
2023-09-29T02:01:46.258Z,2.40
2023-09-29T02:06:47.882Z,3.00
2023-09-29T02:11:49.737Z,3.70
2023-09-29T02:16:51.775Z,2.60
2023-09-29T02:21:53.647Z,2.90
2023-09-29T02:26:55.438Z,3.60
2023-09-29T02:31:57.513Z,3.20
2023-09-29T02:36:59.262Z,3.10
2023-09-29T02:42:01.298Z,2.50
2023-09-29T02:47:03.083Z,3.00
2023-09-29T02:52:04.982Z,2.70
2023-09-29T02:57:06.701Z,2.70
2023-09-29T03:02:08.618Z,3.10
2023-09-29T03:07:10.982Z,2.60
2023-09-29T03:12:12.757Z,2.70
2023-09-29T03:17:14.393Z,3.00
2023-09-29T03:22:16.186Z,3.20
2023-09-29T03:27:17.809Z,3.00
2023-09-29T03:32:19.736Z,3.10
2023-09-29T03:37:22.126Z,2.40
2023-09-29T03:42:23.937Z,2.40
2023-09-29T03:47:25.934Z,2.90
2023-09-29T03:52:27.683Z,2.80
2023-09-29T03:57:29.373Z,2.70
2023-09-29T04:02:31.131Z,2.90
2023-09-29T04:07:33.189Z,2.70
2023-09-29T04:12:35.069Z,2.90
2023-09-29T04:17:36.864Z,3.20
2023-09-29T04:22:38.826Z,2.90
2023-09-29T04:27:41.337Z,3.00
2023-09-29T04:32:43.450Z,3.20
2023-09-29T04:37:45.739Z,3.70
2023-09-29T04:42:47.676Z,3.80
2023-09-29T04:47:49.476Z,3.20
2023-09-29T04:52:51.322Z,3.30
2023-09-29T04:57:53.117Z,3.20
2023-09-29T05:02:55.009Z,3.90
2023-09-29T05:07:56.788Z,3.50
2023-09-29T05:12:58.558Z,3.40
2023-09-29T05:18:00.411Z,3.70
2023-09-29T05:23:02.404Z,4.10
2023-09-29T05:28:04.816Z,4.70
2023-09-29T05:33:06.642Z,3.60
2023-09-29T05:38:08.638Z,4.40
2023-09-29T05:43:13.654Z,3.80
2023-09-29T05:48:17.217Z,5.40
2023-09-29T05:53:19.390Z,4.40
2023-09-29T05:58:21.277Z,4.20
2023-09-29T06:03:23.313Z,4.40
2023-09-29T06:08:26.963Z,4.10
2023-09-29T06:13:32.667Z,4.50
2023-09-29T06:18:34.708Z,4.50
2023-09-29T06:23:36.743Z,3.70
2023-09-29T06:28:38.494Z,4.90
2023-09-29T06:33:40.278Z,4.30
2023-09-29T06:38:42.074Z,4.60
2023-09-29T06:43:43.930Z,5.20
2023-09-29T06:48:45.921Z,4.40
2023-09-29T06:53:49.039Z,4.20
2023-09-29T06:58:52.512Z,4.80
2023-09-29T07:03:55.378Z,4.80
2023-09-29T07:08:57.713Z,4.50
2023-09-29T07:13:59.704Z,4.70
2023-09-29T07:19:01.529Z,4.80
2023-09-29T07:24:03.600Z,4.40
2023-09-29T07:29:05.484Z,4.20
2023-09-29T07:34:07.405Z,5.10
2023-09-29T07:39:09.309Z,5.00
2023-09-29T07:44:11.264Z,5.00
2023-09-29T07:49:13.245Z,4.30
2023-09-29T07:54:14.972Z,4.70
2023-09-29T07:59:17.306Z,5.10
2023-09-29T08:04:19.678Z,5.60
2023-09-29T08:09:21.609Z,5.50
2023-09-29T08:14:23.592Z,4.90
2023-09-29T08:19:25.333Z,5.00
2023-09-29T08:24:27.313Z,5.50
2023-09-29T08:29:29.223Z,6.20
2023-09-29T08:34:31.178Z,6.00
2023-09-29T08:39:33.074Z,5.50
2023-09-29T08:44:35.238Z,5.30
2023-09-29T08:49:49.734Z,5.30
2023-09-29T08:54:52.616Z,4.60
2023-09-29T08:59:55.133Z,5.00
2023-09-29T09:04:57.189Z,4.90
2023-09-29T09:09:58.825Z,4.30
2023-09-29T09:15:00.632Z,5.00
2023-09-29T09:20:02.926Z,3.80
2023-09-29T09:25:05.232Z,4.40
2023-09-29T09:30:07.667Z,4.30
2023-09-29T09:35:09.599Z,3.90
2023-09-29T09:40:11.961Z,4.10
2023-09-29T09:45:13.847Z,4.00
2023-09-29T09:50:15.868Z,4.70
2023-09-29T09:55:17.814Z,4.20
2023-09-29T10:00:19.527Z,4.50
2023-09-29T10:05:22.716Z,4.10
2023-09-29T10:10:41.160Z,4.30
2023-09-29T10:15:43.453Z,4.20
2023-09-29T10:20:46.391Z,3.90
2023-09-29T10:25:58.585Z,4.10
2023-09-29T10:36:14.868Z,3.70
2023-09-29T10:41:31.551Z,3.10
2023-09-29T10:46:35.777Z,3.30
2023-09-29T10:51:37.764Z,3.70
2023-09-29T10:56:39.828Z,3.00
2023-09-29T11:01:41.712Z,3.10
2023-09-29T11:06:49.438Z,3.20
2023-09-29T11:11:51.186Z,3.10
2023-09-29T11:16:59.386Z,3.50
2023-09-29T11:22:01.423Z,3.10
2023-09-29T11:27:03.109Z,3.10
2023-09-29T11:32:05.140Z,3.00
2023-09-29T11:37:07.064Z,3.20
2023-09-29T11:42:08.723Z,3.10
2023-09-29T11:47:10.556Z,3.10
2023-09-29T11:52:12.387Z,3.20
2023-09-29T11:57:14.084Z,3.50
2023-09-29T12:02:15.939Z,3.30
2023-09-29T12:07:17.625Z,4.30
2023-09-29T12:12:19.534Z,3.70
2023-09-29T12:17:21.477Z,4.50
2023-09-29T12:22:23.347Z,5.90
2023-09-29T12:27:25.462Z,5.60
2023-09-29T12:32:27.443Z,3.90
2023-09-29T12:37:29.474Z,4.70
2023-09-29T12:42:31.918Z,4.20
2023-09-29T12:47:33.783Z,3.50
2023-09-29T12:52:36.334Z,4.30
2023-09-29T12:57:38.316Z,3.70
2023-09-29T13:02:40.444Z,7.50
2023-09-29T13:07:42.251Z,4.00
2023-09-29T13:12:46.382Z,4.30
2023-09-29T13:17:50.130Z,4.70
2023-09-29T13:22:52.086Z,3.30
2023-09-29T13:27:54.022Z,3.80
2023-09-29T13:32:56.001Z,4.30
2023-09-29T13:37:57.976Z,3.40
2023-09-29T13:42:59.889Z,4.00
2023-09-29T13:48:01.798Z,5.10
2023-09-29T13:53:03.814Z,3.60
2023-09-29T13:58:05.692Z,4.00
2023-09-29T14:03:07.665Z,3.50
2023-09-29T14:08:09.705Z,4.40
2023-09-29T14:13:11.648Z,3.60
2023-09-29T14:18:13.619Z,3.70
2023-09-29T14:23:15.713Z,3.70
2023-09-29T14:28:17.575Z,3.90
2023-09-29T14:33:19.351Z,4.00
2023-09-29T14:38:22.356Z,3.50
2023-09-29T14:43:24.167Z,4.00
2023-09-29T14:48:26.177Z,3.40
2023-09-29T14:53:28.298Z,3.70
2023-09-29T14:58:30.133Z,3.10
2023-09-29T15:03:32.019Z,3.70
2023-09-29T15:08:35.063Z,4.00
2023-09-29T15:13:36.842Z,3.80
2023-09-29T15:18:38.791Z,3.30
2023-09-29T15:23:41.312Z,5.90
2023-09-29T15:28:44.260Z,3.50
2023-09-29T15:33:46.350Z,3.60
2023-09-29T15:38:48.232Z,4.00
2023-09-29T15:43:50.160Z,3.60
2023-09-29T15:48:52.083Z,3.60
2023-09-29T15:53:54.077Z,4.00
2023-09-29T15:58:55.834Z,3.70
2023-09-29T16:03:57.787Z,4.10
2023-09-29T16:08:59.958Z,4.60
2023-09-29T16:14:01.860Z,4.20
2023-09-29T16:19:03.822Z,4.10
2023-09-29T16:24:07.582Z,6.60
2023-09-29T16:29:09.401Z,4.40
2023-09-29T16:34:11.179Z,4.30
2023-09-29T16:39:13.193Z,3.60
2023-09-29T16:44:15.051Z,4.40
2023-09-29T16:49:16.822Z,4.00
2023-09-29T16:54:19.401Z,4.50
2023-09-29T16:59:23.350Z,4.10
2023-09-29T17:04:25.265Z,4.20
2023-09-29T17:09:27.383Z,3.50
2023-09-29T17:14:29.596Z,4.40
2023-09-29T17:19:31.492Z,4.60
2023-09-29T17:24:35.390Z,4.30
2023-09-29T17:29:37.180Z,4.10
2023-09-29T17:34:38.953Z,4.10
2023-09-29T17:39:40.726Z,4.10
2023-09-29T17:44:42.526Z,4.00
2023-09-29T17:49:44.330Z,4.30
2023-09-29T17:54:46.195Z,4.80
2023-09-29T17:59:48.259Z,6.30
2023-09-29T18:04:50.141Z,5.20
2023-09-29T18:09:52.613Z,5.10
2023-09-29T18:14:54.531Z,4.20
2023-09-29T18:19:56.440Z,4.50
2023-09-29T18:24:58.375Z,3.90
2023-09-29T18:30:00.317Z,4.30
2023-09-29T18:35:02.663Z,4.50
2023-09-29T18:40:05.349Z,5.00
2023-09-29T18:45:08.136Z,5.10
2023-09-29T18:50:10.112Z,4.60
2023-09-29T18:55:12.321Z,4.80
2023-09-29T19:00:14.647Z,4.80
2023-09-29T19:05:16.587Z,4.30
2023-09-29T19:10:18.552Z,4.50
2023-09-29T19:15:20.676Z,4.80
2023-09-29T19:20:22.608Z,5.00
2023-09-29T19:25:24.589Z,4.70
2023-09-29T19:30:26.721Z,4.90
2023-09-29T19:35:28.549Z,4.40
2023-09-29T19:40:30.244Z,4.50
2023-09-29T19:45:32.268Z,4.70
2023-09-29T19:50:34.416Z,4.20
2023-09-29T19:55:36.099Z,5.10
2023-09-29T20:00:38.015Z,4.80
2023-09-29T20:05:40.116Z,4.90
2023-09-29T20:10:43.494Z,4.60
2023-09-29T20:15:45.510Z,4.60
2023-09-29T20:20:47.701Z,5.00
2023-09-29T20:25:49.507Z,5.10
2023-09-29T20:30:51.168Z,5.50
2023-09-29T20:35:52.841Z,4.70
2023-09-29T20:40:54.702Z,5.30
2023-09-29T20:45:56.513Z,4.60
2023-09-29T20:50:58.375Z,5.60
2023-09-29T20:56:00.267Z,4.60
2023-09-29T21:01:02.160Z,4.60
2023-09-29T21:06:04.043Z,4.50
2023-09-29T21:11:05.962Z,5.10
2023-09-29T21:16:07.929Z,4.50
2023-09-29T21:21:09.832Z,4.30
2023-09-29T21:26:12.708Z,4.90
2023-09-29T21:31:15.136Z,4.30
2023-09-29T21:36:17.155Z,4.10
2023-09-29T21:41:19.067Z,3.80
2023-09-29T21:46:20.998Z,3.70
2023-09-29T21:51:22.855Z,3.60
2023-09-29T21:56:24.785Z,3.70
2023-09-29T22:01:26.543Z,3.90
2023-09-29T22:06:28.434Z,4.00
2023-09-29T22:11:30.344Z,3.80
2023-09-29T22:16:32.299Z,4.20
2023-09-29T22:21:34.283Z,3.80
2023-09-29T22:26:36.077Z,3.80
2023-09-29T22:31:37.896Z,5.00
2023-09-29T22:36:40.897Z,3.90
2023-09-29T22:41:42.742Z,4.00
2023-09-29T22:46:44.624Z,4.00
2023-09-29T22:51:48.255Z,4.70
2023-09-29T22:56:51.344Z,4.00
2023-09-29T23:01:53.167Z,4.20
2023-09-29T23:06:55.076Z,4.30
2023-09-29T23:11:56.979Z,3.80
2023-09-29T23:16:58.997Z,4.10
2023-09-29T23:22:00.838Z,4.60
2023-09-29T23:27:02.819Z,4.30
2023-09-29T23:32:05.314Z,3.50
2023-09-29T23:37:07.020Z,4.00
2023-09-29T23:42:08.893Z,4.60
2023-09-29T23:47:10.564Z,4.60
2023-09-29T23:52:12.402Z,4.30
2023-09-29T23:57:14.310Z,5.10
